Time;durP1;ratioP1;P1;durP2;ratioP2;P2;SDS_P1;SDS_P2;PMS_P1;PMS_P2;Temp;Humidity;BMP_temperature;BMP_pressure;BME280_temperature;BME280_humidity;BME280_pressure;Samples;Min_cycle;Max_cycle;Signal;HPM_P1;HPM_P2
2021/03/19 00:01:40;;;;;;;13.90;9.10;;;1.40;99.90;;;;;;5014674;28;20187;-85
2021/03/19 00:04:07;;;;;;;12.73;7.30;;;1.40;99.90;;;;;;5016798;28;20290;-85
2021/03/19 00:06:33;;;;;;;13.43;8.37;;;1.40;99.90;;;;;;5015196;28;20512;-85
2021/03/19 00:09:01;;;;;;;15.60;8.70;;;1.40;99.90;;;;;;5014660;28;20502;-85
2021/03/19 00:11:27;;;;;;;17.83;10.27;;;1.40;99.90;;;;;;5018425;28;20851;-84
2021/03/19 00:13:53;;;;;;;17.20;10.00;;;1.40;99.90;;;;;;5011406;28;20550;-85
2021/03/19 00:16:19;;;;;;;14.47;9.13;;;1.30;99.90;;;;;;5016348;28;20416;-85
2021/03/19 00:18:45;;;;;;;18.00;9.37;;;1.30;99.90;;;;;;5011995;28;20419;-85
2021/03/19 00:21:11;;;;;;;16.53;9.93;;;1.30;99.90;;;;;;4995948;28;20465;-85
2021/03/19 00:23:37;;;;;;;16.63;9.37;;;1.20;99.90;;;;;;5012881;28;20199;-87
2021/03/19 00:26:03;;;;;;;14.27;9.00;;;1.20;99.90;;;;;;5013790;28;20479;-86
2021/03/19 00:28:29;;;;;;;13.63;8.67;;;1.10;99.90;;;;;;4999170;28;20543;-86
2021/03/19 00:30:55;;;;;;;13.40;8.77;;;1.10;99.90;;;;;;5011302;28;20429;-86
2021/03/19 00:33:21;;;;;;;15.13;10.13;;;1.10;99.90;;;;;;5026360;28;20854;-86
2021/03/19 00:35:47;;;;;;;15.90;10.33;;;1.10;99.90;;;;;;5014636;28;20175;-86
2021/03/19 00:38:13;;;;;;;17.80;8.63;;;1.00;99.90;;;;;;5015271;28;20484;-86
2021/03/19 00:40:40;;;;;;;17.13;9.30;;;1.10;99.90;;;;;;5016130;28;20414;-86
2021/03/19 00:43:08;;;;;;;17.17;10.17;;;1.10;99.90;;;;;;5014635;28;20196;-86
2021/03/19 00:45:35;;;;;;;17.90;9.43;;;1.10;99.90;;;;;;5013960;28;20438;-86
2021/03/19 00:48:01;;;;;;;23.60;11.30;;;1.10;99.90;;;;;;5014309;28;20957;-86
2021/03/19 00:50:37;;;;;;;14.33;9.30;;;1.10;99.90;;;;;;5016146;28;20409;-86
2021/03/19 00:53:03;;;;;;;14.50;9.60;;;1.10;99.90;;;;;;5010811;28;20544;-86
2021/03/19 00:55:30;;;;;;;16.30;10.50;;;1.10;99.90;;;;;;4996107;28;20424;-86
2021/03/19 00:57:55;;;;;;;14.30;9.43;;;1.10;99.90;;;;;;5004627;28;20440;-86
2021/03/19 01:00:23;;;;;;;16.20;10.80;;;1.20;99.90;;;;;;4995894;28;20417;-86
2021/03/19 01:02:49;;;;;;;17.20;10.53;;;1.20;99.90;;;;;;4996101;28;20248;-86
2021/03/19 01:05:18;;;;;;;15.77;9.97;;;1.20;99.90;;;;;;4999371;28;20423;-86
2021/03/19 01:07:45;;;;;;;18.17;10.20;;;1.30;99.90;;;;;;5019078;28;20204;-86
2021/03/19 01:10:15;;;;;;;25.47;11.87;;;1.30;99.90;;;;;;5014970;28;20786;-86
2021/03/19 01:12:43;;;;;;;21.30;11.93;;;1.20;99.90;;;;;;5008565;28;21025;-86
2021/03/19 01:15:10;;;;;;;19.00;10.70;;;1.20;99.90;;;;;;5030760;28;20525;-86
2021/03/19 01:17:36;;;;;;;21.97;11.73;;;1.20;99.90;;;;;;5013898;28;20431;-86
2021/03/19 01:20:10;;;;;;;16.17;10.67;;;1.20;99.90;;;;;;5012810;28;20449;-86
2021/03/19 01:22:36;;;;;;;16.50;9.77;;;1.10;99.90;;;;;;5014231;28;20196;-86
2021/03/19 01:25:05;;;;;;;17.90;10.47;;;1.10;99.90;;;;;;5030515;28;20502;-86
2021/03/19 01:27:31;;;;;;;15.43;10.67;;;1.10;99.90;;;;;;5014598;28;20464;-86
2021/03/19 01:29:57;;;;;;;17.97;11.40;;;1.20;99.90;;;;;;5014699;28;20413;-86
2021/03/19 01:32:23;;;;;;;17.33;10.40;;;1.20;99.90;;;;;;5012982;28;20198;-86
2021/03/19 01:34:48;;;;;;;17.33;10.63;;;1.20;99.90;;;;;;5013524;28;20204;-86
2021/03/19 01:37:14;;;;;;;22.07;11.40;;;1.20;99.90;;;;;;5013968;28;20523;-86
2021/03/19 01:39:40;;;;;;;18.90;11.03;;;1.10;99.90;;;;;;5014838;28;20227;-86
2021/03/19 01:42:08;;;;;;;17.47;10.57;;;1.10;99.90;;;;;;5014795;28;20172;-86
2021/03/19 01:44:50;;;;;;;17.23;10.07;;;1.10;99.90;;;;;;5013375;28;20442;-86
2021/03/19 01:47:53;;;;;;;16.73;10.20;;;1.10;99.90;;;;;;5014184;28;20462;-86
2021/03/19 01:50:56;;;;;;;14.97;10.93;;;1.00;99.90;;;;;;5015175;28;20411;-86
2021/03/19 01:53:59;;;;;;;14.90;9.10;;;1.00;99.90;;;;;;5013535;28;20497;-86
2021/03/19 01:57:02;;;;;;;18.40;10.03;;;1.00;99.90;;;;;;5019178;28;20415;-86
2021/03/19 02:00:05;;;;;;;19.93;11.00;;;1.00;99.90;;;;;;5033120;28;20450;-86
2021/03/19 02:03:08;;;;;;;16.43;11.07;;;1.00;99.90;;;;;;5017576;28;20457;-86
2021/03/19 02:06:12;;;;;;;18.67;11.20;;;1.00;99.90;;;;;;5034440;28;20457;-86
2021/03/19 02:09:31;;;;;;;14.60;9.37;;;1.10;99.90;;;;;;5037756;28;20429;-85
2021/03/19 02:12:34;;;;;;;20.33;10.30;;;1.00;99.90;;;;;;4951101;29;20415;-86
2021/03/19 02:15:37;;;;;;;18.37;11.53;;;1.00;99.90;;;;;;4999803;28;20760;-86
2021/03/19 02:18:40;;;;;;;18.40;10.30;;;1.00;99.90;;;;;;5021026;28;20434;-86
2021/03/19 02:21:46;;;;;;;21.40;10.93;;;1.00;99.90;;;;;;5017056;28;20858;-86
2021/03/19 02:24:49;;;;;;;18.33;9.70;;;1.10;99.90;;;;;;5012278;28;20540;-86
2021/03/19 02:27:52;;;;;;;15.20;9.13;;;1.10;99.90;;;;;;5016367;28;20458;-86
2021/03/19 02:30:56;;;;;;;18.63;9.97;;;1.10;99.90;;;;;;4997070;28;20545;-86
2021/03/19 02:33:21;;;;;;;17.87;10.27;;;1.10;99.90;;;;;;5001860;28;20954;-86
2021/03/19 02:35:56;;;;;;;16.87;10.10;;;1.10;99.90;;;;;;5016827;28;20463;-86
2021/03/19 02:38:22;;;;;;;20.90;9.47;;;1.00;99.90;;;;;;5016220;28;20175;-86
2021/03/19 02:40:49;;;;;;;15.53;9.27;;;1.00;99.90;;;;;;5033418;28;20940;-86
2021/03/19 02:43:16;;;;;;;13.23;8.73;;;1.00;99.90;;;;;;5014577;28;20452;-86
2021/03/19 02:45:42;;;;;;;17.67;10.60;;;1.00;99.90;;;;;;4998194;28;20499;-86
2021/03/19 02:48:10;;;;;;;16.33;9.60;;;1.00;99.90;;;;;;4998432;28;20855;-86
2021/03/19 02:50:36;;;;;;;17.63;9.37;;;1.00;99.90;;;;;;4996754;28;20933;-86
2021/03/19 02:53:02;;;;;;;17.17;9.27;;;1.10;99.90;;;;;;5012647;28;20466;-86
2021/03/19 02:55:28;;;;;;;14.90;10.00;;;1.10;99.90;;;;;;5021043;28;20424;-86
2021/03/19 02:57:54;;;;;;;18.13;10.87;;;1.10;99.90;;;;;;5017891;28;20406;-86
2021/03/19 03:00:23;;;;;;;13.50;9.27;;;1.10;99.90;;;;;;5003536;28;20186;-86
2021/03/19 03:02:50;;;;;;;20.23;11.83;;;1.10;99.90;;;;;;5018075;28;20203;-86
2021/03/19 03:05:17;;;;;;;16.87;9.27;;;1.10;99.90;;;;;;5015066;28;20441;-86
2021/03/19 03:07:44;;;;;;;17.03;10.30;;;1.10;99.90;;;;;;5014439;28;20818;-86
2021/03/19 03:10:15;;;;;;;18.27;10.60;;;1.10;99.90;;;;;;5013853;28;20432;-86
2021/03/19 03:12:41;;;;;;;15.67;9.27;;;1.20;99.90;;;;;;5017490;28;20426;-86
2021/03/19 03:15:10;;;;;;;16.60;10.33;;;1.20;99.90;;;;;;5030523;28;20457;-86
2021/03/19 03:17:35;;;;;;;17.70;9.87;;;1.20;99.90;;;;;;5017402;28;20187;-86
2021/03/19 03:20:03;;;;;;;20.23;9.83;;;1.20;99.90;;;;;;5015519;28;20503;-86
2021/03/19 03:22:29;;;;;;;14.30;9.70;;;1.20;99.90;;;;;;5032173;28;20203;-86
2021/03/19 03:24:54;;;;;;;16.77;9.17;;;1.20;99.90;;;;;;5016410;28;20469;-86
2021/03/19 03:27:20;;;;;;;18.33;10.40;;;1.20;99.90;;;;;;5016794;28;20293;-87
2021/03/19 03:29:46;;;;;;;17.07;9.67;;;1.20;99.90;;;;;;5016098;28;20176;-86
2021/03/19 03:32:12;;;;;;;16.20;10.00;;;1.20;99.90;;;;;;5017123;28;20175;-86
2021/03/19 03:34:37;;;;;;;18.97;10.27;;;1.20;99.90;;;;;;5015463;28;20565;-86
2021/03/19 03:37:03;;;;;;;19.00;10.77;;;1.20;99.90;;;;;;5016219;28;20178;-86
2021/03/19 03:39:32;;;;;;;19.90;10.47;;;1.20;99.90;;;;;;5014310;28;20191;-86
2021/03/19 03:42:02;;;;;;;15.30;7.90;;;1.20;99.90;;;;;;5031609;28;20418;-86
2021/03/19 03:44:28;;;;;;;16.77;10.53;;;1.20;99.90;;;;;;5003714;28;20429;-86
2021/03/19 03:46:55;;;;;;;16.00;9.20;;;1.20;99.90;;;;;;5011931;28;20455;-86
2021/03/19 03:49:22;;;;;;;15.43;9.80;;;1.10;99.90;;;;;;5001663;28;20473;-86
2021/03/19 03:51:48;;;;;;;17.30;10.80;;;1.10;99.90;;;;;;5014466;28;20438;-86
2021/03/19 03:54:14;;;;;;;15.03;9.33;;;1.10;99.90;;;;;;5015207;28;20880;-86
2021/03/19 03:56:43;;;;;;;15.80;9.07;;;1.20;99.90;;;;;;5016151;28;20183;-86
2021/03/19 03:59:09;;;;;;;18.83;9.90;;;1.10;99.90;;;;;;5012478;28;20444;-86
2021/03/19 04:01:39;;;;;;;17.03;9.70;;;1.20;99.90;;;;;;5011833;28;20446;-86
2021/03/19 04:04:06;;;;;;;13.83;8.83;;;1.20;99.90;;;;;;5009785;28;20470;-86
2021/03/19 04:06:32;;;;;;;16.43;8.70;;;1.30;99.90;;;;;;5019549;28;20977;-86
2021/03/19 04:08:58;;;;;;;19.27;9.40;;;1.30;99.90;;;;;;5017204;28;20502;-86
2021/03/19 04:11:23;;;;;;;13.87;9.13;;;1.20;99.90;;;;;;5016458;28;20204;-86
2021/03/19 04:13:51;;;;;;;14.07;8.10;;;1.20;99.90;;;;;;5031417;28;20253;-86
2021/03/19 04:16:18;;;;;;;18.00;9.30;;;1.20;99.90;;;;;;5015653;28;20195;-86
2021/03/19 04:18:45;;;;;;;14.97;8.83;;;1.20;99.90;;;;;;5030968;28;20429;-86
2021/03/19 04:21:11;;;;;;;18.53;8.70;;;1.20;99.90;;;;;;5015482;28;20524;-86
2021/03/19 04:23:41;;;;;;;16.03;8.33;;;1.20;99.90;;;;;;5015855;28;20429;-86
2021/03/19 04:26:28;;;;;;;13.17;7.73;;;1.20;99.90;;;;;;5025182;28;20469;-86
2021/03/19 04:28:55;;;;;;;15.93;9.13;;;1.20;99.90;;;;;;5019520;28;20407;-86
2021/03/19 04:31:21;;;;;;;14.70;8.73;;;1.20;99.90;;;;;;5031503;28;20450;-86
2021/03/19 04:33:48;;;;;;;14.10;7.90;;;1.20;99.90;;;;;;5028726;23;21044;-68
2021/03/19 04:36:27;;;;;;;17.23;8.50;;;1.30;99.90;;;;;;5013175;28;20920;-66
2021/03/19 04:38:56;;;;;;;18.20;8.43;;;1.30;99.90;;;;;;5014860;28;20765;-66
2021/03/19 04:41:21;;;;;;;19.30;7.70;;;1.30;99.90;;;;;;5013352;28;20448;-67
2021/03/19 04:43:48;;;;;;;11.50;7.53;;;1.30;99.90;;;;;;5014502;28;20422;-66
2021/03/19 04:46:14;;;;;;;10.80;7.77;;;1.30;99.90;;;;;;5013104;28;20268;-68
2021/03/19 04:48:40;;;;;;;14.70;8.63;;;1.30;99.90;;;;;;5013378;28;20455;-66
2021/03/19 04:51:06;;;;;;;17.70;9.47;;;1.30;99.90;;;;;;5013146;28;20503;-68
2021/03/19 04:53:31;;;;;;;15.60;9.23;;;1.30;99.90;;;;;;5014466;28;20697;-67
2021/03/19 04:55:57;;;;;;;13.07;8.77;;;1.30;99.90;;;;;;5011993;28;20649;-66
2021/03/19 04:58:23;;;;;;;14.53;8.43;;;1.30;99.90;;;;;;5014055;28;20177;-66
2021/03/19 05:00:48;;;;;;;13.83;8.47;;;1.20;99.90;;;;;;5013046;28;20194;-67
2021/03/19 05:03:14;;;;;;;16.50;7.57;;;1.20;99.90;;;;;;5014347;28;20196;-66
2021/03/19 05:05:40;;;;;;;15.80;8.57;;;1.20;99.90;;;;;;5012168;28;20171;-66
2021/03/19 05:08:06;;;;;;;12.47;8.10;;;1.30;99.90;;;;;;5001347;28;20475;-66
2021/03/19 05:10:35;;;;;;;17.33;10.60;;;1.30;99.90;;;;;;5000138;28;20172;-66
2021/03/19 05:13:02;;;;;;;18.80;8.10;;;1.30;99.90;;;;;;5014311;28;20184;-67
2021/03/19 05:15:30;;;;;;;16.43;9.50;;;1.40;99.90;;;;;;5012653;28;20418;-67
2021/03/19 05:17:56;;;;;;;16.40;8.83;;;1.40;99.90;;;;;;5014096;28;20787;-67
2021/03/19 05:20:22;;;;;;;12.60;7.60;;;1.40;99.90;;;;;;5012656;28;20426;-66
2021/03/19 05:22:48;;;;;;;13.00;8.13;;;1.30;99.90;;;;;;5013912;28;20756;-67
2021/03/19 05:25:19;;;;;;;16.33;8.63;;;1.30;99.90;;;;;;5012774;28;20953;-67
2021/03/19 05:27:45;;;;;;;12.67;7.57;;;1.30;99.90;;;;;;5013810;28;20477;-67
2021/03/19 05:30:13;;;;;;;12.10;7.80;;;1.30;99.90;;;;;;5017252;28;21727;-67
2021/03/19 05:32:39;;;;;;;12.40;7.70;;;1.30;99.90;;;;;;5017697;28;20188;-67
2021/03/19 05:35:08;;;;;;;15.83;9.17;;;1.20;99.90;;;;;;5014418;28;20442;-67
2021/03/19 05:37:33;;;;;;;17.47;8.60;;;1.10;99.90;;;;;;5016161;28;20508;-67
2021/03/19 05:39:59;;;;;;;13.07;8.73;;;1.10;99.90;;;;;;5015204;28;20513;-67
2021/03/19 05:42:29;;;;;;;17.13;9.10;;;1.10;99.90;;;;;;5016116;28;20186;-66
2021/03/19 05:45:23;;;;;;;18.23;9.83;;;1.10;99.90;;;;;;5015323;28;20186;-68
2021/03/19 05:47:50;;;;;;;11.70;8.07;;;1.10;99.90;;;;;;4996473;28;20465;-68
2021/03/19 05:50:42;;;;;;;15.00;9.23;;;1.10;99.90;;;;;;4998964;28;20430;-67
2021/03/19 05:53:16;;;;;;;11.57;8.03;;;1.20;99.90;;;;;;5013210;28;20439;-67
2021/03/19 05:55:43;;;;;;;13.20;8.67;;;1.20;99.90;;;;;;5014898;28;20434;-67
2021/03/19 05:58:26;;;;;;;11.53;7.03;;;1.20;99.90;;;;;;5015781;28;20418;-67
2021/03/19 06:00:55;;;;;;;14.20;7.77;;;1.30;99.90;;;;;;5015370;28;20523;-67
2021/03/19 06:03:21;;;;;;;15.73;9.17;;;1.30;99.90;;;;;;5015850;28;20503;-66
2021/03/19 06:06:07;;;;;;;14.50;8.93;;;1.30;99.90;;;;;;5015133;28;20522;-67
2021/03/19 06:08:37;;;;;;;15.43;8.30;;;1.30;99.90;;;;;;5014667;28;20202;-67
2021/03/19 06:11:05;;;;;;;20.90;10.20;;;1.30;99.90;;;;;;5014681;28;20456;-67
2021/03/19 06:13:40;;;;;;;24.97;12.40;;;1.30;99.90;;;;;;5016141;28;20485;-66
2021/03/19 06:16:40;;;;;;;14.40;8.53;;;1.30;99.90;;;;;;5014689;28;20433;-66
2021/03/19 06:19:29;;;;;;;22.73;10.27;;;1.30;99.90;;;;;;5014695;28;20438;-67
2021/03/19 06:22:16;;;;;;;14.37;8.03;;;1.30;99.90;;;;;;5014498;28;20456;-66
2021/03/19 06:24:43;;;;;;;12.60;7.43;;;1.20;99.90;;;;;;5015823;28;20387;-66
2021/03/19 06:27:20;;;;;;;13.03;7.90;;;1.30;99.90;;;;;;5014192;28;20539;-65
2021/03/19 06:29:51;;;;;;;13.00;7.07;;;1.30;99.90;;;;;;5014612;28;20474;-66
2021/03/19 06:32:19;;;;;;;14.37;7.80;;;1.30;99.90;;;;;;5014862;28;20462;-66
2021/03/19 06:34:53;;;;;;;13.50;8.37;;;1.30;99.90;;;;;;4993438;28;668952;-65
2021/03/19 06:37:52;;;;;;;13.47;7.47;;;1.40;99.90;;;;;;5015964;28;20197;-66
2021/03/19 06:40:38;;;;;;;13.30;7.83;;;1.40;99.90;;;;;;4997283;28;20771;-67
2021/03/19 06:43:16;;;;;;;17.20;10.73;;;1.50;99.90;;;;;;5016967;28;20519;-65
2021/03/19 06:45:43;;;;;;;19.20;9.37;;;1.50;99.90;;;;;;5015490;28;20450;-65
2021/03/19 06:48:32;;;;;;;16.40;8.73;;;1.60;99.90;;;;;;5016765;28;20825;-65
2021/03/19 06:50:58;;;;;;;13.33;7.70;;;1.60;99.90;;;;;;5015572;28;20437;-65
2021/03/19 06:53:27;;;;;;;14.53;8.37;;;1.60;99.90;;;;;;5016517;28;20508;-67
2021/03/19 06:56:18;;;;;;;18.83;10.47;;;1.70;99.90;;;;;;5012269;28;20913;-67
2021/03/19 06:58:47;;;;;;;12.07;7.03;;;1.70;99.90;;;;;;4997064;28;20394;-68
2021/03/19 07:01:34;;;;;;;16.50;9.20;;;1.80;99.90;;;;;;5018128;28;20771;-67
2021/03/19 07:04:28;;;;;;;14.43;9.03;;;1.90;99.90;;;;;;5016669;28;20408;-67
2021/03/19 07:07:02;;;;;;;14.23;7.23;;;2.00;99.90;;;;;;5006993;28;20506;-66
2021/03/19 07:09:49;;;;;;;14.07;8.77;;;2.10;99.90;;;;;;5016157;28;20465;-67
2021/03/19 07:12:32;;;;;;;18.83;10.10;;;2.20;99.90;;;;;;5015775;28;20497;-67
2021/03/19 07:15:02;;;;;;;16.13;10.23;;;2.20;99.90;;;;;;5015390;28;20438;-67
2021/03/19 07:17:43;;;;;;;16.40;10.20;;;2.40;99.90;;;;;;5015466;28;20453;-67
2021/03/19 07:21:03;;;;;;;13.10;8.40;;;2.60;99.90;;;;;;5016278;28;20819;-66
2021/03/19 07:23:41;;;;;;;14.53;9.07;;;2.70;99.90;;;;;;5012821;28;20428;-66
2021/03/19 07:26:34;;;;;;;14.10;8.90;;;2.70;99.90;;;;;;5014944;28;20433;-67
2021/03/19 07:29:29;;;;;;;12.30;8.37;;;2.80;99.90;;;;;;5016007;28;20877;-66
2021/03/19 07:32:20;;;;;;;16.73;8.30;;;2.90;99.90;;;;;;5014888;28;20459;-66
2021/03/19 07:35:04;;;;;;;18.13;9.93;;;2.80;99.90;;;;;;5015416;28;20441;-66
2021/03/19 07:37:44;;;;;;;15.53;7.60;;;2.80;99.90;;;;;;5014777;28;20438;-66
2021/03/19 07:40:54;;;;;;;12.20;7.57;;;2.70;99.90;;;;;;4996125;28;20401;-66
2021/03/19 07:43:20;;;;;;;13.13;9.30;;;2.70;99.90;;;;;;4996339;28;20492;-66
2021/03/19 07:46:27;;;;;;;12.20;7.53;;;2.80;99.90;;;;;;4996796;28;20429;-67
2021/03/19 07:48:55;;;;;;;15.00;9.60;;;2.90;99.90;;;;;;5013885;28;20283;-65
2021/03/19 07:51:58;;;;;;;15.13;7.93;;;2.90;99.90;;;;;;5013546;28;20982;-66
2021/03/19 07:54:39;;;;;;;15.50;9.20;;;3.10;99.90;;;;;;5014921;28;20866;-66
2021/03/19 07:57:19;;;;;;;13.30;8.97;;;3.00;99.90;;;;;;5007798;28;20469;-66
2021/03/19 08:00:17;;;;;;;15.63;10.67;;;2.90;99.90;;;;;;5005733;28;20497;-66
2021/03/19 08:03:11;;;;;;;14.03;9.13;;;2.90;99.90;;;;;;4964785;28;20469;-66
2021/03/19 08:05:51;;;;;;;14.17;9.20;;;3.00;99.90;;;;;;5012461;28;20426;-67
2021/03/19 08:08:35;;;;;;;14.60;8.37;;;3.10;99.90;;;;;;5006524;28;20432;-67
2021/03/19 08:11:13;;;;;;;12.87;7.80;;;3.00;99.90;;;;;;5013506;28;20759;-67
2021/03/19 08:13:44;;;;;;;15.90;10.30;;;3.00;99.90;;;;;;5005563;28;20498;-66
2021/03/19 08:16:24;;;;;;;17.23;9.47;;;3.00;99.90;;;;;;5011975;28;20907;-67
2021/03/19 08:19:08;;;;;;;16.83;9.10;;;3.20;99.90;;;;;;5010780;28;20404;-66
2021/03/19 08:22:01;;;;;;;18.50;9.60;;;3.30;99.90;;;;;;5007644;28;20459;-66
2021/03/19 08:24:30;;;;;;;14.83;8.83;;;3.40;99.90;;;;;;5014000;28;20429;-66
2021/03/19 08:27:30;;;;;;;19.30;11.57;;;3.30;99.90;;;;;;5004229;28;20511;-67
2021/03/19 08:30:05;;;;;;;13.60;9.03;;;3.40;99.90;;;;;;4959399;28;20460;-68
2021/03/19 08:32:56;;;;;;;17.10;9.97;;;3.60;99.90;;;;;;5010193;28;20432;-67
2021/03/19 08:35:37;;;;;;;15.80;8.77;;;3.60;99.90;;;;;;5008865;28;20685;-67
2021/03/19 08:38:40;;;;;;;13.43;8.70;;;3.70;99.90;;;;;;5010568;28;20466;-67
2021/03/19 08:41:13;;;;;;;17.60;9.80;;;3.80;99.90;;;;;;5005936;28;20433;-67
2021/03/19 08:43:55;;;;;;;17.53;10.20;;;3.70;99.90;;;;;;5009541;28;20529;-67
2021/03/19 08:47:15;;;;;;;17.47;10.47;;;3.80;99.90;;;;;;5010308;28;20461;-72
2021/03/19 08:49:51;;;;;;;25.23;11.10;;;3.80;99.90;;;;;;4989096;28;20431;-75
2021/03/19 08:52:39;;;;;;;16.70;10.33;;;3.70;99.90;;;;;;5009181;28;20461;-76
2021/03/19 08:55:14;;;;;;;19.63;10.70;;;3.70;99.90;;;;;;5006566;28;20789;-77
2021/03/19 08:57:54;;;;;;;17.37;11.00;;;3.80;99.90;;;;;;5008087;28;20447;-72
2021/03/19 09:00:20;;;;;;;16.70;10.60;;;3.80;99.90;;;;;;5004905;28;20794;-73
2021/03/19 09:03:02;;;;;;;17.47;9.97;;;3.70;99.90;;;;;;5006876;28;20453;-74
2021/03/19 09:05:30;;;;;;;14.90;9.27;;;3.50;99.90;;;;;;5011311;28;20540;-73
2021/03/19 09:08:14;;;;;;;16.33;10.27;;;3.60;99.90;;;;;;5009774;28;20476;-73
2021/03/19 09:10:40;;;;;;;15.70;9.80;;;3.70;99.90;;;;;;5008039;28;20421;-71
2021/03/19 09:13:09;;;;;;;15.40;9.60;;;3.70;99.90;;;;;;5014505;28;20441;-69
2021/03/19 09:15:41;;;;;;;18.75;11.30;;;3.70;99.90;;;;;;5007366;28;20430;-74
2021/03/19 09:18:35;;;;;;;16.73;10.50;;;3.60;99.90;;;;;;5011276;28;20184;-72
2021/03/19 09:21:27;;;;;;;19.40;11.90;;;3.70;99.90;;;;;;5007621;28;20839;-73
2021/03/19 09:24:03;;;;;;;17.43;11.07;;;3.80;99.90;;;;;;5026954;28;20492;-74
2021/03/19 09:26:50;;;;;;;17.53;10.37;;;4.00;99.90;;;;;;5009120;28;20783;-76
2021/03/19 09:29:34;;;;;;;17.50;10.97;;;4.00;99.90;;;;;;5009618;28;20437;-74
2021/03/19 09:32:36;;;;;;;15.40;11.57;;;4.00;99.90;;;;;;5007664;28;20951;-73
2021/03/19 09:35:07;;;;;;;22.60;10.70;;;3.90;99.90;;;;;;5010919;28;20434;-70
2021/03/19 09:37:36;;;;;;;18.70;10.07;;;3.70;99.90;;;;;;5007787;28;21000;-73
2021/03/19 09:40:08;;;;;;;16.77;10.83;;;3.60;99.90;;;;;;5008568;28;20454;-73
2021/03/19 09:42:36;;;;;;;13.80;8.93;;;3.70;99.90;;;;;;5002502;28;20819;-73
2021/03/19 09:45:02;;;;;;;19.20;9.13;;;3.70;99.90;;;;;;5006055;28;20417;-76
2021/03/19 09:47:43;;;;;;;13.50;8.40;;;3.80;99.90;;;;;;5007934;28;20488;-73
2021/03/19 09:50:25;;;;;;;14.43;8.37;;;3.80;99.90;;;;;;5007311;28;20629;-75
2021/03/19 09:53:13;;;;;;;12.17;7.10;;;3.80;99.90;;;;;;5004166;28;20453;-75
2021/03/19 09:56:01;;;;;;;13.53;8.00;;;3.60;99.90;;;;;;5006270;28;20906;-73
2021/03/19 09:58:42;;;;;;;12.50;8.20;;;3.70;99.90;;;;;;5005146;28;20454;-73
2021/03/19 10:01:13;;;;;;;16.47;8.70;;;3.60;99.90;;;;;;5002925;28;20430;-73
2021/03/19 10:03:48;;;;;;;19.33;8.90;;;3.60;99.90;;;;;;5004885;28;20450;-74
2021/03/19 10:06:25;;;;;;;13.87;8.27;;;3.90;99.90;;;;;;5006502;28;20517;-78
2021/03/19 10:09:01;;;;;;;13.93;9.05;;;4.20;99.90;;;;;;5008948;28;21097;-77
2021/03/19 10:11:27;;;;;;;10.90;7.90;;;4.60;99.90;;;;;;5007711;28;20196;-73
2021/03/19 10:14:09;;;;;;;15.90;9.13;;;4.70;99.90;;;;;;5008319;28;20423;-72
2021/03/19 10:16:34;;;;;;;13.63;8.37;;;4.60;99.90;;;;;;5012584;28;20195;-77
2021/03/19 10:19:10;;;;;;;13.90;8.90;;;4.60;99.90;;;;;;5015298;28;20428;-70
2021/03/19 10:21:47;;;;;;;14.80;9.73;;;4.40;99.90;;;;;;5016423;28;20438;-75
2021/03/19 10:24:14;;;;;;;15.10;9.30;;;4.50;99.90;;;;;;5013998;28;20417;-76
2021/03/19 10:26:56;;;;;;;11.77;8.80;;;4.60;99.90;;;;;;5012423;28;20492;-76
2021/03/19 10:29:33;;;;;;;12.90;9.57;;;4.50;99.90;;;;;;5014646;28;20401;-73
2021/03/19 10:32:23;;;;;;;13.83;8.40;;;4.40;99.90;;;;;;5002905;28;20963;-74
2021/03/19 10:35:09;;;;;;;12.10;8.50;;;4.30;99.90;;;;;;5015444;28;20535;-73
2021/03/19 10:37:42;;;;;;;15.23;9.43;;;4.40;99.90;;;;;;5013892;28;20510;-75
2021/03/19 10:40:22;;;;;;;16.90;9.83;;;4.40;99.90;;;;;;5015183;28;20172;-72
2021/03/19 10:42:51;;;;;;;14.10;9.60;;;4.20;99.90;;;;;;5013516;28;20480;-78
2021/03/19 10:45:52;;;;;;;14.23;9.50;;;4.30;99.90;;;;;;5005894;28;20430;-72
2021/03/19 10:48:27;;;;;;;18.83;10.90;;;4.50;99.90;;;;;;5008314;28;20441;-72
2021/03/19 10:51:17;;;;;;;15.07;9.63;;;4.90;99.90;;;;;;5014599;28;20576;-73
2021/03/19 10:53:53;;;;;;;15.93;10.57;;;5.20;99.90;;;;;;5016433;28;20432;-73
2021/03/19 10:56:19;;;;;;;17.05;11.45;;;5.30;99.90;;;;;;5012759;28;20995;-72
2021/03/19 10:58:51;;;;;;;19.30;12.03;;;5.20;99.90;;;;;;5011399;28;20537;-71
2021/03/19 11:01:37;;;;;;;13.93;9.00;;;5.10;99.90;;;;;;5014577;28;20421;-73
2021/03/19 11:04:25;;;;;;;11.00;7.97;;;5.20;99.90;;;;;;5013847;28;20508;-73
2021/03/19 11:06:52;;;;;;;14.53;9.77;;;5.20;99.90;;;;;;5004430;28;20461;-73
2021/03/19 11:09:21;;;;;;;11.33;7.63;;;5.20;99.90;;;;;;5006777;28;20822;-73
2021/03/19 11:11:56;;;;;;;18.33;8.80;;;5.30;99.90;;;;;;5003246;28;20758;-73
2021/03/19 11:14:27;;;;;;;11.37;7.80;;;5.30;99.90;;;;;;5010257;28;20422;-72
2021/03/19 11:20:03;;;;;;;14.60;9.07;;;5.00;99.90;;;;;;4998674;28;20835;-72
2021/03/19 11:22:41;;;;;;;13.43;9.50;;;5.00;99.90;;;;;;5014332;28;20458;-73
2021/03/19 11:25:22;;;;;;;12.43;9.40;;;4.90;99.90;;;;;;5014381;28;20449;-73
2021/03/19 11:27:49;;;;;;;14.90;8.80;;;5.10;99.90;;;;;;5010631;28;20472;-72
2021/03/19 11:30:24;;;;;;;13.60;9.07;;;5.20;99.90;;;;;;5011392;28;20530;-73
2021/03/19 11:33:20;;;;;;;15.23;9.20;;;5.20;99.90;;;;;;5015494;28;20974;-73
2021/03/19 11:36:10;;;;;;;12.80;9.27;;;5.50;99.90;;;;;;5005013;28;20434;-72
2021/03/19 11:38:39;;;;;;;11.97;8.63;;;5.50;99.90;;;;;;5016040;28;20842;-73
2021/03/19 11:41:26;;;;;;;11.63;8.60;;;5.60;99.90;;;;;;5013643;28;20433;-73
2021/03/19 11:43:52;;;;;;;15.00;9.00;;;5.60;99.90;;;;;;5000257;28;20949;-72
2021/03/19 11:46:19;;;;;;;16.33;9.70;;;5.60;99.90;;;;;;5002847;28;20473;-74
2021/03/19 11:48:45;;;;;;;16.63;10.00;;;5.90;99.90;;;;;;5013508;28;20172;-74
2021/03/19 11:51:39;;;;;;;20.00;11.07;;;6.10;99.90;;;;;;5013998;28;20411;-74
2021/03/19 11:54:09;;;;;;;13.07;9.23;;;6.30;99.90;;;;;;5011466;28;20438;-74
2021/03/19 11:56:37;;;;;;;14.80;9.20;;;5.90;99.90;;;;;;5013776;28;20416;-73
2021/03/19 11:59:03;;;;;;;16.03;9.53;;;5.60;99.90;;;;;;5006851;28;20489;-73
2021/03/19 12:01:31;;;;;;;13.77;9.00;;;5.30;99.90;;;;;;5013035;28;20825;-73
2021/03/19 12:03:58;;;;;;;12.47;8.67;;;5.10;99.90;;;;;;5012211;28;20529;-73
2021/03/19 12:06:27;;;;;;;15.07;10.67;;;5.00;99.90;;;;;;5012736;28;20878;-73
2021/03/19 12:08:53;;;;;;;15.10;8.83;;;5.10;99.90;;;;;;5012350;28;20425;-73
2021/03/19 12:11:36;;;;;;;13.80;8.40;;;5.30;99.90;;;;;;5005085;28;20432;-73
2021/03/19 12:14:03;;;;;;;16.13;9.57;;;5.60;99.90;;;;;;5007248;28;20417;-74
2021/03/19 12:16:30;;;;;;;11.83;8.90;;;6.10;99.90;;;;;;5012457;28;20488;-73
2021/03/19 12:18:56;;;;;;;12.73;8.57;;;6.50;99.90;;;;;;5007350;28;20800;-73
2021/03/19 12:21:23;;;;;;;11.70;7.70;;;6.80;99.90;;;;;;5013752;28;20449;-74
2021/03/19 12:23:49;;;;;;;10.53;8.17;;;6.80;99.90;;;;;;5010480;28;20526;-74
2021/03/19 12:26:15;;;;;;;15.00;9.60;;;6.30;99.90;;;;;;5013287;28;20924;-73
2021/03/19 12:28:40;;;;;;;12.13;8.30;;;5.80;99.90;;;;;;5010097;28;20431;-73
2021/03/19 12:31:07;;;;;;;10.77;8.50;;;5.50;99.90;;;;;;5013680;28;20218;-73
2021/03/19 12:33:35;;;;;;;11.60;7.70;;;5.40;99.90;;;;;;5012377;28;20681;-73
2021/03/19 12:36:02;;;;;;;9.10;6.70;;;5.20;99.90;;;;;;5010622;28;20422;-73
2021/03/19 12:38:28;;;;;;;9.10;6.40;;;5.10;99.90;;;;;;5012062;28;20437;-73
2021/03/19 12:40:55;;;;;;;9.23;6.03;;;4.90;99.90;;;;;;5014099;28;20414;-73
2021/03/19 12:43:21;;;;;;;10.17;7.20;;;4.90;99.90;;;;;;5012221;28;20816;-72
2021/03/19 12:45:47;;;;;;;12.47;7.87;;;4.90;99.90;;;;;;5013458;28;20410;-73
2021/03/19 12:48:13;;;;;;;10.67;7.83;;;5.00;99.90;;;;;;5011962;28;20463;-73
2021/03/19 12:50:39;;;;;;;11.43;7.33;;;5.10;99.90;;;;;;5013750;28;20166;-73
2021/03/19 12:53:07;;;;;;;16.37;9.17;;;5.10;99.90;;;;;;5012375;28;20439;-73
2021/03/19 12:55:34;;;;;;;16.23;7.97;;;5.10;99.90;;;;;;5013658;28;20418;-73
2021/03/19 12:58:01;;;;;;;11.27;8.00;;;5.00;99.90;;;;;;5009912;28;20941;-74
2021/03/19 13:00:30;;;;;;;10.40;7.40;;;5.00;99.90;;;;;;5011299;28;20435;-73
2021/03/19 13:03:05;;;;;;;12.63;7.40;;;5.20;99.90;;;;;;5007996;28;20468;-73
2021/03/19 13:05:32;;;;;;;9.67;6.77;;;5.60;99.90;;;;;;5012644;28;20486;-74
2021/03/19 13:07:59;;;;;;;15.50;5.80;;;6.00;99.90;;;;;;5010918;28;20538;-73
2021/03/19 13:10:27;;;;;;;10.90;7.00;;;6.30;99.90;;;;;;5007015;28;20438;-73
2021/03/19 13:12:53;;;;;;;8.73;6.87;;;6.50;99.90;;;;;;5006223;28;20499;-74
2021/03/19 13:15:23;;;;;;;16.90;8.07;;;6.50;99.90;;;;;;5013074;28;20453;-73
2021/03/19 13:17:49;;;;;;;10.03;6.67;;;6.40;99.90;;;;;;5010666;28;20518;-73
2021/03/19 13:20:15;;;;;;;9.50;7.47;;;6.10;99.90;;;;;;5010756;28;20533;-74
2021/03/19 13:22:42;;;;;;;11.73;5.80;;;5.90;99.90;;;;;;5011367;28;20202;-74
2021/03/19 13:25:12;;;;;;;9.00;5.87;;;5.90;99.90;;;;;;5012548;28;20494;-73